In Rescue
 
Open Full Screen Window  High Contrast Mode
Wind Gusting 14 knots
07
July 13, 2020 8:50 AM CDT
Weather Information
Wind Direction
  170 °
Wind Speed
  07 kt (8 mph)
Wind Gust
  14 kt (16 mph)
Altimeter
29.86 in
Visibility
10 SM
Temperature
23° C
73° F
Dewpoint
19° C
66° F
Humidity
78%
1hr Rain Fall
00.00 in.
24hr Rain Fall
00.00 in.
Sky Condition
Clear
VFR

METAR KTKC 131350Z AUTO 17007G14KT 10SM CLR 23/19 A2986 RMK AO2 T02270186 TSNO

FAA Disclaimer: The data displayed is for advisory purposes only and is not to be used for flight planning or operations.